sensor_id;sensor_type;location;lat;lon;timestamp;temperature;humidity
11284;DHT22;5698;47.332;11.180;2023-01-29T00:02:07;-4.90;99.90
11284;DHT22;5698;47.332;11.180;2023-01-29T00:04:34;-4.80;99.90
11284;DHT22;5698;47.332;11.180;2023-01-29T00:07:02;-4.90;99.90
11284;DHT22;5698;47.332;11.180;2023-01-29T00:09:29;-4.90;99.90
11284;DHT22;5698;47.332;11.180;2023-01-29T00:11:56;-4.90;99.90
11284;DHT22;5698;47.332;11.180;2023-01-29T00:14:23;-4.90;99.90
11284;DHT22;5698;47.332;11.180;2023-01-29T00:16:51;-5.00;99.90
11284;DHT22;5698;47.332;11.180;2023-01-29T00:19:19;-5.10;99.90
11284;DHT22;5698;47.332;11.180;2023-01-29T00:21:46;-5.10;99.90
11284;DHT22;5698;47.332;11.180;2023-01-29T00:24:14;-5.10;99.90
11284;DHT22;5698;47.332;11.180;2023-01-29T00:26:41;-5.10;99.90
11284;DHT22;5698;47.332;11.180;2023-01-29T00:29:08;-5.20;99.90
11284;DHT22;5698;47.332;11.180;2023-01-29T00:31:35;-5.20;99.90
11284;DHT22;5698;47.332;11.180;2023-01-29T00:34:02;-5.10;99.90
11284;DHT22;5698;47.332;11.180;2023-01-29T00:36:29;-5.10;99.90
11284;DHT22;5698;47.332;11.180;2023-01-29T00:38:57;-5.00;99.90
11284;DHT22;5698;47.332;11.180;2023-01-29T00:41:28;-5.00;99.90
11284;DHT22;5698;47.332;11.180;2023-01-29T00:44:13;-5.00;99.90
11284;DHT22;5698;47.332;11.180;2023-01-29T00:46:57;-5.00;99.90
11284;DHT22;5698;47.332;11.180;2023-01-29T00:49:25;-5.10;99.90
11284;DHT22;5698;47.332;11.180;2023-01-29T00:51:52;-5.10;99.90
11284;DHT22;5698;47.332;11.180;2023-01-29T00:54:36;-5.00;99.90
11284;DHT22;5698;47.332;11.180;2023-01-29T00:57:05;-5.00;99.90
11284;DHT22;5698;47.332;11.180;2023-01-29T00:59:32;-5.00;99.90
11284;DHT22;5698;47.332;11.180;2023-01-29T01:01:59;-5.10;99.90
11284;DHT22;5698;47.332;11.180;2023-01-29T01:04:42;-5.00;99.90
11284;DHT22;5698;47.332;11.180;2023-01-29T01:07:09;-4.90;99.90
11284;DHT22;5698;47.332;11.180;2023-01-29T01:09:36;-5.00;99.90
11284;DHT22;5698;47.332;11.180;2023-01-29T01:12:22;-5.00;99.90
11284;DHT22;5698;47.332;11.180;2023-01-29T01:14:49;-4.90;99.90
11284;DHT22;5698;47.332;11.180;2023-01-29T01:17:16;-4.90;99.90
11284;DHT22;5698;47.332;11.180;2023-01-29T01:19:43;-4.90;99.90
11284;DHT22;5698;47.332;11.180;2023-01-29T01:22:10;-4.90;99.90
11284;DHT22;5698;47.332;11.180;2023-01-29T01:24:37;-4.90;99.90
11284;DHT22;5698;47.332;11.180;2023-01-29T01:27:05;-4.90;99.90
11284;DHT22;5698;47.332;11.180;2023-01-29T01:29:33;-4.90;99.90
11284;DHT22;5698;47.332;11.180;2023-01-29T01:32:01;-4.90;99.90
11284;DHT22;5698;47.332;11.180;2023-01-29T01:34:28;-4.80;99.90
11284;DHT22;5698;47.332;11.180;2023-01-29T01:36:55;-4.80;99.90
11284;DHT22;5698;47.332;11.180;2023-01-29T01:39:22;-4.80;99.90
11284;DHT22;5698;47.332;11.180;2023-01-29T01:41:50;-4.80;99.90
11284;DHT22;5698;47.332;11.180;2023-01-29T01:47:37;-4.80;99.90
11284;DHT22;5698;47.332;11.180;2023-01-29T01:50:10;-4.80;99.90
11284;DHT22;5698;47.332;11.180;2023-01-29T01:52:41;-4.80;99.90
11284;DHT22;5698;47.332;11.180;2023-01-29T01:55:12;-4.80;99.90
11284;DHT22;5698;47.332;11.180;2023-01-29T01:57:42;-4.80;99.90
11284;DHT22;5698;47.332;11.180;2023-01-29T02:00:14;-4.70;99.90
11284;DHT22;5698;47.332;11.180;2023-01-29T02:02:45;-4.70;99.90
11284;DHT22;5698;47.332;11.180;2023-01-29T02:05:31;-4.70;99.90
11284;DHT22;5698;47.332;11.180;2023-01-29T02:08:19;-4.90;99.90
11284;DHT22;5698;47.332;11.180;2023-01-29T02:11:08;-4.80;99.90
11284;DHT22;5698;47.332;11.180;2023-01-29T02:13:35;-4.80;99.90
11284;DHT22;5698;47.332;11.180;2023-01-29T02:16:03;-4.80;99.90
11284;DHT22;5698;47.332;11.180;2023-01-29T02:18:31;-4.80;99.90
11284;DHT22;5698;47.332;11.180;2023-01-29T02:21:25;-4.80;99.90
11284;DHT22;5698;47.332;11.180;2023-01-29T02:24:44;-4.90;99.90
11284;DHT22;5698;47.332;11.180;2023-01-29T02:27:19;-4.90;99.90
11284;DHT22;5698;47.332;11.180;2023-01-29T02:29:55;-4.90;99.90
11284;DHT22;5698;47.332;11.180;2023-01-29T02:32:30;-5.00;99.90
11284;DHT22;5698;47.332;11.180;2023-01-29T02:35:10;-5.10;99.90
11284;DHT22;5698;47.332;11.180;2023-01-29T02:38:02;-5.20;99.90
11284;DHT22;5698;47.332;11.180;2023-01-29T02:40:35;-5.30;99.90
11284;DHT22;5698;47.332;11.180;2023-01-29T02:43:09;-5.40;99.90
11284;DHT22;5698;47.332;11.180;2023-01-29T02:45:47;-5.40;99.90
11284;DHT22;5698;47.332;11.180;2023-01-29T02:48:18;-5.50;99.90
11284;DHT22;5698;47.332;11.180;2023-01-29T02:50:49;-5.50;99.90
11284;DHT22;5698;47.332;11.180;2023-01-29T02:53:24;-5.70;99.90
11284;DHT22;5698;47.332;11.180;2023-01-29T02:55:56;-5.70;99.90
11284;DHT22;5698;47.332;11.180;2023-01-29T02:58:29;-5.70;99.90
11284;DHT22;5698;47.332;11.180;2023-01-29T03:01:03;-5.80;99.90
11284;DHT22;5698;47.332;11.180;2023-01-29T03:03:36;-5.90;99.90
11284;DHT22;5698;47.332;11.180;2023-01-29T03:06:07;-6.00;99.90
11284;DHT22;5698;47.332;11.180;2023-01-29T03:08:48;-6.10;99.90
11284;DHT22;5698;47.332;11.180;2023-01-29T03:11:19;-6.10;99.90
11284;DHT22;5698;47.332;11.180;2023-01-29T03:13:50;-6.10;99.90
11284;DHT22;5698;47.332;11.180;2023-01-29T03:16:23;-6.20;99.90
11284;DHT22;5698;47.332;11.180;2023-01-29T03:18:54;-6.30;99.90
11284;DHT22;5698;47.332;11.180;2023-01-29T03:21:26;-6.30;99.90
11284;DHT22;5698;47.332;11.180;2023-01-29T03:24:14;-6.30;99.90
11284;DHT22;5698;47.332;11.180;2023-01-29T03:27:02;-6.40;99.90
11284;DHT22;5698;47.332;11.180;2023-01-29T03:29:49;-6.40;99.90
11284;DHT22;5698;47.332;11.180;2023-01-29T03:32:37;-6.30;99.90
11284;DHT22;5698;47.332;11.180;2023-01-29T03:35:06;-6.40;99.90
11284;DHT22;5698;47.332;11.180;2023-01-29T03:37:39;-6.60;99.90
11284;DHT22;5698;47.332;11.180;2023-01-29T03:40:08;-6.60;99.90
11284;DHT22;5698;47.332;11.180;2023-01-29T03:42:48;-6.60;99.90
11284;DHT22;5698;47.332;11.180;2023-01-29T03:45:20;-6.60;99.90
11284;DHT22;5698;47.332;11.180;2023-01-29T03:47:55;-6.60;99.90
11284;DHT22;5698;47.332;11.180;2023-01-29T03:50:32;-6.50;99.90
11284;DHT22;5698;47.332;11.180;2023-01-29T03:53:07;-6.60;99.90
11284;DHT22;5698;47.332;11.180;2023-01-29T03:55:42;-6.50;99.90
11284;DHT22;5698;47.332;11.180;2023-01-29T03:58:20;-6.50;99.90
11284;DHT22;5698;47.332;11.180;2023-01-29T04:00:53;-6.60;99.90
11284;DHT22;5698;47.332;11.180;2023-01-29T04:03:27;-6.60;99.90
11284;DHT22;5698;47.332;11.180;2023-01-29T04:06:02;-6.60;99.90
11284;DHT22;5698;47.332;11.180;2023-01-29T04:08:37;-6.50;99.90
11284;DHT22;5698;47.332;11.180;2023-01-29T04:11:10;-6.90;99.90
11284;DHT22;5698;47.332;11.180;2023-01-29T04:13:39;-6.90;99.90
11284;DHT22;5698;47.332;11.180;2023-01-29T04:16:11;-6.90;99.90
11284;DHT22;5698;47.332;11.180;2023-01-29T04:18:44;-6.90;99.90
11284;DHT22;5698;47.332;11.180;2023-01-29T04:21:11;-6.80;99.90
11284;DHT22;5698;47.332;11.180;2023-01-29T04:23:38;-6.90;99.90
11284;DHT22;5698;47.332;11.180;2023-01-29T04:26:24;-6.80;99.90
11284;DHT22;5698;47.332;11.180;2023-01-29T04:29:14;-6.80;99.90
11284;DHT22;5698;47.332;11.180;2023-01-29T04:31:49;-6.80;99.90
11284;DHT22;5698;47.332;11.180;2023-01-29T04:34:24;-6.80;99.90
11284;DHT22;5698;47.332;11.180;2023-01-29T04:37:01;-6.80;99.90
11284;DHT22;5698;47.332;11.180;2023-01-29T04:39:39;-6.90;99.90
11284;DHT22;5698;47.332;11.180;2023-01-29T04:42:13;-6.90;99.90
11284;DHT22;5698;47.332;11.180;2023-01-29T04:44:44;-7.00;99.90
11284;DHT22;5698;47.332;11.180;2023-01-29T04:47:20;-7.10;99.90
11284;DHT22;5698;47.332;11.180;2023-01-29T04:49:58;-7.20;99.90
11284;DHT22;5698;47.332;11.180;2023-01-29T04:52:34;-7.20;99.90
11284;DHT22;5698;47.332;11.180;2023-01-29T04:55:06;-7.20;99.90
11284;DHT22;5698;47.332;11.180;2023-01-29T04:57:44;-7.10;99.90
11284;DHT22;5698;47.332;11.180;2023-01-29T05:00:16;-7.10;99.90
11284;DHT22;5698;47.332;11.180;2023-01-29T05:02:45;-7.00;99.90
11284;DHT22;5698;47.332;11.180;2023-01-29T05:05:16;-6.90;99.90
11284;DHT22;5698;47.332;11.180;2023-01-29T05:07:45;-6.90;99.90
11284;DHT22;5698;47.332;11.180;2023-01-29T05:10:15;-6.80;99.90
11284;DHT22;5698;47.332;11.180;2023-01-29T05:12:47;-6.80;99.90
11284;DHT22;5698;47.332;11.180;2023-01-29T05:15:17;-6.70;99.90
11284;DHT22;5698;47.332;11.180;2023-01-29T05:17:45;-6.60;99.90
11284;DHT22;5698;47.332;11.180;2023-01-29T05:20:14;-6.60;99.90
11284;DHT22;5698;47.332;11.180;2023-01-29T05:22:41;-6.50;99.90
11284;DHT22;5698;47.332;11.180;2023-01-29T05:25:21;-6.60;99.90
11284;DHT22;5698;47.332;11.180;2023-01-29T05:27:50;-6.40;99.90
11284;DHT22;5698;47.332;11.180;2023-01-29T05:30:34;-6.60;99.90
11284;DHT22;5698;47.332;11.180;2023-01-29T05:33:02;-6.40;99.90
11284;DHT22;5698;47.332;11.180;2023-01-29T05:35:31;-6.60;99.90
11284;DHT22;5698;47.332;11.180;2023-01-29T05:37:58;-6.30;99.90
11284;DHT22;5698;47.332;11.180;2023-01-29T05:40:25;-6.50;99.90
11284;DHT22;5698;47.332;11.180;2023-01-29T05:42:52;-6.50;99.90
11284;DHT22;5698;47.332;11.180;2023-01-29T05:45:19;-6.50;99.90
11284;DHT22;5698;47.332;11.180;2023-01-29T05:47:46;-6.50;99.90
11284;DHT22;5698;47.332;11.180;2023-01-29T05:50:14;-6.40;99.90
11284;DHT22;5698;47.332;11.180;2023-01-29T05:52:42;-6.50;99.90
11284;DHT22;5698;47.332;11.180;2023-01-29T05:55:09;-6.40;99.90
11284;DHT22;5698;47.332;11.180;2023-01-29T05:57:38;-6.40;99.90
11284;DHT22;5698;47.332;11.180;2023-01-29T06:00:06;-6.40;99.90
11284;DHT22;5698;47.332;11.180;2023-01-29T06:02:34;-6.40;99.90
11284;DHT22;5698;47.332;11.180;2023-01-29T06:05:01;-6.30;99.90
11284;DHT22;5698;47.332;11.180;2023-01-29T06:07:28;-6.20;99.90
11284;DHT22;5698;47.332;11.180;2023-01-29T06:09:56;-6.20;99.90
11284;DHT22;5698;47.332;11.180;2023-01-29T06:12:23;-6.00;99.90
11284;DHT22;5698;47.332;11.180;2023-01-29T06:14:50;-6.10;99.90
11284;DHT22;5698;47.332;11.180;2023-01-29T06:17:17;-6.10;99.90
11284;DHT22;5698;47.332;11.180;2023-01-29T06:19:45;-6.20;99.90
11284;DHT22;5698;47.332;11.180;2023-01-29T06:22:12;-6.10;99.90
11284;DHT22;5698;47.332;11.180;2023-01-29T06:24:39;-6.00;99.90
11284;DHT22;5698;47.332;11.180;2023-01-29T06:27:07;-6.00;99.90
11284;DHT22;5698;47.332;11.180;2023-01-29T06:29:34;-6.10;99.90
11284;DHT22;5698;47.332;11.180;2023-01-29T06:32:01;-6.20;99.90
11284;DHT22;5698;47.332;11.180;2023-01-29T06:34:28;-6.20;99.90
11284;DHT22;5698;47.332;11.180;2023-01-29T06:36:55;-6.20;99.90
11284;DHT22;5698;47.332;11.180;2023-01-29T06:39:22;-6.20;99.90
11284;DHT22;5698;47.332;11.180;2023-01-29T06:41:49;-6.20;99.90
11284;DHT22;5698;47.332;11.180;2023-01-29T06:44:17;-6.00;99.90
11284;DHT22;5698;47.332;11.180;2023-01-29T06:46:44;-6.10;99.90
11284;DHT22;5698;47.332;11.180;2023-01-29T06:49:11;-6.10;99.90
11284;DHT22;5698;47.332;11.180;2023-01-29T06:51:38;-6.20;99.90
11284;DHT22;5698;47.332;11.180;2023-01-29T06:54:05;-6.00;99.90
11284;DHT22;5698;47.332;11.180;2023-01-29T06:56:33;-6.10;99.90
11284;DHT22;5698;47.332;11.180;2023-01-29T06:59:00;-6.10;99.90
11284;DHT22;5698;47.332;11.180;2023-01-29T07:01:28;-6.00;99.90
11284;DHT22;5698;47.332;11.180;2023-01-29T07:03:56;-6.20;99.90
11284;DHT22;5698;47.332;11.180;2023-01-29T07:06:26;-6.20;99.90
11284;DHT22;5698;47.332;11.180;2023-01-29T07:08:54;-6.30;99.90
11284;DHT22;5698;47.332;11.180;2023-01-29T07:11:21;-6.20;99.90
11284;DHT22;5698;47.332;11.180;2023-01-29T07:13:48;-6.20;99.90
11284;DHT22;5698;47.332;11.180;2023-01-29T07:16:15;-6.20;99.90
11284;DHT22;5698;47.332;11.180;2023-01-29T07:18:45;-6.20;99.90
11284;DHT22;5698;47.332;11.180;2023-01-29T07:21:12;-6.10;99.90
11284;DHT22;5698;47.332;11.180;2023-01-29T07:23:39;-6.20;99.90
11284;DHT22;5698;47.332;11.180;2023-01-29T07:26:06;-6.20;99.90
11284;DHT22;5698;47.332;11.180;2023-01-29T07:28:35;-6.10;99.90
11284;DHT22;5698;47.332;11.180;2023-01-29T07:31:03;-6.10;99.90
11284;DHT22;5698;47.332;11.180;2023-01-29T07:33:30;-6.00;99.90
11284;DHT22;5698;47.332;11.180;2023-01-29T07:35:58;-6.00;99.90
11284;DHT22;5698;47.332;11.180;2023-01-29T07:38:25;-6.10;99.90
11284;DHT22;5698;47.332;11.180;2023-01-29T07:40:53;-6.00;99.90
11284;DHT22;5698;47.332;11.180;2023-01-29T07:43:20;-6.00;99.90
11284;DHT22;5698;47.332;11.180;2023-01-29T07:45:49;-6.10;99.90
11284;DHT22;5698;47.332;11.180;2023-01-29T07:48:16;-6.10;99.90
11284;DHT22;5698;47.332;11.180;2023-01-29T07:50:43;-6.10;99.90
11284;DHT22;5698;47.332;11.180;2023-01-29T07:53:13;-6.20;99.90
11284;DHT22;5698;47.332;11.180;2023-01-29T07:55:42;-6.10;99.90
11284;DHT22;5698;47.332;11.180;2023-01-29T07:58:10;-6.20;99.90
11284;DHT22;5698;47.332;11.180;2023-01-29T08:00:37;-6.20;99.90
11284;DHT22;5698;47.332;11.180;2023-01-29T08:03:05;-6.30;99.90
11284;DHT22;5698;47.332;11.180;2023-01-29T08:05:33;-6.20;99.90
11284;DHT22;5698;47.332;11.180;2023-01-29T08:08:00;-6.10;99.90
11284;DHT22;5698;47.332;11.180;2023-01-29T08:10:28;-6.00;99.90
11284;DHT22;5698;47.332;11.180;2023-01-29T08:12:56;-6.00;99.90
11284;DHT22;5698;47.332;11.180;2023-01-29T08:15:24;-5.90;99.90
11284;DHT22;5698;47.332;11.180;2023-01-29T08:17:51;-5.90;99.90
11284;DHT22;5698;47.332;11.180;2023-01-29T08:20:19;-5.90;99.90
11284;DHT22;5698;47.332;11.180;2023-01-29T08:22:46;-5.90;99.90
11284;DHT22;5698;47.332;11.180;2023-01-29T08:25:13;-5.80;99.90
11284;DHT22;5698;47.332;11.180;2023-01-29T08:27:42;-5.80;99.90
11284;DHT22;5698;47.332;11.180;2023-01-29T08:30:10;-5.80;99.90
11284;DHT22;5698;47.332;11.180;2023-01-29T08:32:37;-5.80;99.90
11284;DHT22;5698;47.332;11.180;2023-01-29T08:35:05;-5.60;99.90
11284;DHT22;5698;47.332;11.180;2023-01-29T08:37:32;-5.50;99.90
11284;DHT22;5698;47.332;11.180;2023-01-29T08:39:59;-5.40;99.90
11284;DHT22;5698;47.332;11.180;2023-01-29T08:42:26;-5.20;99.90
11284;DHT22;5698;47.332;11.180;2023-01-29T08:44:54;-5.20;99.90
11284;DHT22;5698;47.332;11.180;2023-01-29T08:47:21;-5.10;99.90
11284;DHT22;5698;47.332;11.180;2023-01-29T08:49:48;-5.00;99.90
11284;DHT22;5698;47.332;11.180;2023-01-29T08:52:15;-4.80;99.90
11284;DHT22;5698;47.332;11.180;2023-01-29T08:54:42;-4.70;99.90
11284;DHT22;5698;47.332;11.180;2023-01-29T08:57:09;-4.40;99.90
11284;DHT22;5698;47.332;11.180;2023-01-29T08:59:36;-4.50;99.90
11284;DHT22;5698;47.332;11.180;2023-01-29T09:02:05;-4.30;99.90
11284;DHT22;5698;47.332;11.180;2023-01-29T09:04:32;-4.00;99.90
11284;DHT22;5698;47.332;11.180;2023-01-29T09:06:59;-3.50;99.90
11284;DHT22;5698;47.332;11.180;2023-01-29T09:09:26;-3.10;99.90
11284;DHT22;5698;47.332;11.180;2023-01-29T09:11:53;-3.00;99.90
11284;DHT22;5698;47.332;11.180;2023-01-29T09:14:20;-2.80;99.90
11284;DHT22;5698;47.332;11.180;2023-01-29T09:16:47;-2.60;99.90
11284;DHT22;5698;47.332;11.180;2023-01-29T09:19:15;-2.30;99.90
11284;DHT22;5698;47.332;11.180;2023-01-29T09:21:42;-2.00;99.90
11284;DHT22;5698;47.332;11.180;2023-01-29T09:24:09;-1.90;99.90
11284;DHT22;5698;47.332;11.180;2023-01-29T09:26:36;-1.50;99.90
11284;DHT22;5698;47.332;11.180;2023-01-29T09:29:04;-1.20;99.90
11284;DHT22;5698;47.332;11.180;2023-01-29T09:31:32;-0.90;99.90
11284;DHT22;5698;47.332;11.180;2023-01-29T09:33:59;-0.60;99.90
11284;DHT22;5698;47.332;11.180;2023-01-29T09:36:27;-0.60;99.90
11284;DHT22;5698;47.332;11.180;2023-01-29T09:38:54;-0.40;99.90
11284;DHT22;5698;47.332;11.180;2023-01-29T09:41:32;0.10;99.90
11284;DHT22;5698;47.332;11.180;2023-01-29T09:44:12;0.30;99.90
11284;DHT22;5698;47.332;11.180;2023-01-29T09:46:42;0.40;99.90
11284;DHT22;5698;47.332;11.180;2023-01-29T09:49:15;0.40;99.90
11284;DHT22;5698;47.332;11.180;2023-01-29T09:51:48;0.40;99.90
11284;DHT22;5698;47.332;11.180;2023-01-29T09:54:22;0.30;99.90
11284;DHT22;5698;47.332;11.180;2023-01-29T09:56:52;0.20;99.90
11284;DHT22;5698;47.332;11.180;2023-01-29T09:59:22;0.30;99.90
11284;DHT22;5698;47.332;11.180;2023-01-29T10:01:58;0.60;99.90
11284;DHT22;5698;47.332;11.180;2023-01-29T10:10:34;0.60;99.90
11284;DHT22;5698;47.332;11.180;2023-01-29T10:13:12;0.60;99.90
11284;DHT22;5698;47.332;11.180;2023-01-29T10:15:48;0.70;99.90
11284;DHT22;5698;47.332;11.180;2023-01-29T10:18:55;0.80;99.90
11284;DHT22;5698;47.332;11.180;2023-01-29T10:21:36;1.00;99.90
11284;DHT22;5698;47.332;11.180;2023-01-29T10:24:20;1.40;99.90
11284;DHT22;5698;47.332;11.180;2023-01-29T10:26:48;1.50;99.90
11284;DHT22;5698;47.332;11.180;2023-01-29T10:29:19;1.70;99.90
11284;DHT22;5698;47.332;11.180;2023-01-29T10:31:50;1.80;99.90
11284;DHT22;5698;47.332;11.180;2023-01-29T10:34:23;1.90;99.90
11284;DHT22;5698;47.332;11.180;2023-01-29T10:36:53;1.70;99.90
11284;DHT22;5698;47.332;11.180;2023-01-29T10:39:24;1.60;99.90
11284;DHT22;5698;47.332;11.180;2023-01-29T10:42:05;1.50;99.90
11284;DHT22;5698;47.332;11.180;2023-01-29T10:44:49;1.60;99.90
11284;DHT22;5698;47.332;11.180;2023-01-29T10:50:16;2.60;99.90
11284;DHT22;5698;47.332;11.180;2023-01-29T10:52:57;2.30;99.90
11284;DHT22;5698;47.332;11.180;2023-01-29T10:55:39;2.80;99.90
11284;DHT22;5698;47.332;11.180;2023-01-29T10:58:16;3.00;99.90
11284;DHT22;5698;47.332;11.180;2023-01-29T11:00:45;3.60;99.90
11284;DHT22;5698;47.332;11.180;2023-01-29T11:03:17;4.30;99.90
11284;DHT22;5698;47.332;11.180;2023-01-29T11:05:54;5.00;99.90
11284;DHT22;5698;47.332;11.180;2023-01-29T11:08:25;5.70;99.90
11284;DHT22;5698;47.332;11.180;2023-01-29T11:11:06;6.20;99.90
11284;DHT22;5698;47.332;11.180;2023-01-29T11:13:37;6.70;97.40
11284;DHT22;5698;47.332;11.180;2023-01-29T11:16:07;6.90;96.30
11284;DHT22;5698;47.332;11.180;2023-01-29T11:18:49;7.10;97.60
11284;DHT22;5698;47.332;11.180;2023-01-29T11:21:16;7.50;98.00
11284;DHT22;5698;47.332;11.180;2023-01-29T11:23:43;7.90;97.30
11284;DHT22;5698;47.332;11.180;2023-01-29T11:26:17;8.20;95.60
11284;DHT22;5698;47.332;11.180;2023-01-29T11:28:46;8.50;95.40
11284;DHT22;5698;47.332;11.180;2023-01-29T11:31:24;8.80;92.80
11284;DHT22;5698;47.332;11.180;2023-01-29T11:33:53;9.20;94.70
11284;DHT22;5698;47.332;11.180;2023-01-29T11:36:33;9.40;92.40
11284;DHT22;5698;47.332;11.180;2023-01-29T11:39:12;9.70;94.30
11284;DHT22;5698;47.332;11.180;2023-01-29T11:41:47;9.90;90.20
11284;DHT22;5698;47.332;11.180;2023-01-29T11:44:18;10.00;90.10
11284;DHT22;5698;47.332;11.180;2023-01-29T11:46:46;10.10;84.30
11284;DHT22;5698;47.332;11.180;2023-01-29T11:49:31;10.20;87.30
11284;DHT22;5698;47.332;11.180;2023-01-29T11:52:00;10.10;81.30
11284;DHT22;5698;47.332;11.180;2023-01-29T11:54:33;9.40;80.30
11284;DHT22;5698;47.332;11.180;2023-01-29T11:57:02;8.70;81.40
11284;DHT22;5698;47.332;11.180;2023-01-29T11:59:40;8.70;82.70
11284;DHT22;5698;47.332;11.180;2023-01-29T12:02:21;8.50;86.20
11284;DHT22;5698;47.332;11.180;2023-01-29T12:04:52;7.80;84.80
11284;DHT22;5698;47.332;11.180;2023-01-29T12:07:21;7.60;86.30
11284;DHT22;5698;47.332;11.180;2023-01-29T12:09:51;7.60;85.90
11284;DHT22;5698;47.332;11.180;2023-01-29T12:12:36;7.10;86.10
11284;DHT22;5698;47.332;11.180;2023-01-29T12:15:18;7.10;89.20
11284;DHT22;5698;47.332;11.180;2023-01-29T12:18:02;7.20;86.20
11284;DHT22;5698;47.332;11.180;2023-01-29T12:20:35;7.40;87.30
11284;DHT22;5698;47.332;11.180;2023-01-29T12:23:10;7.70;85.80
11284;DHT22;5698;47.332;11.180;2023-01-29T12:25:46;7.10;86.30
11284;DHT22;5698;47.332;11.180;2023-01-29T12:28:24;6.60;87.20
11284;DHT22;5698;47.332;11.180;2023-01-29T12:31:04;7.20;91.20
11284;DHT22;5698;47.332;11.180;2023-01-29T12:33:39;7.30;84.90
11284;DHT22;5698;47.332;11.180;2023-01-29T12:36:12;7.20;85.50
11284;DHT22;5698;47.332;11.180;2023-01-29T12:38:40;7.10;86.70
11284;DHT22;5698;47.332;11.180;2023-01-29T12:44:10;8.20;90.30
11284;DHT22;5698;47.332;11.180;2023-01-29T12:46:41;8.70;86.70
11284;DHT22;5698;47.332;11.180;2023-01-29T12:49:14;9.10;88.00
11284;DHT22;5698;47.332;11.180;2023-01-29T12:51:48;9.50;85.50
11284;DHT22;5698;47.332;11.180;2023-01-29T12:54:22;9.70;81.00
11284;DHT22;5698;47.332;11.180;2023-01-29T12:56:56;9.90;85.80
11284;DHT22;5698;47.332;11.180;2023-01-29T12:59:27;10.00;86.30
11284;DHT22;5698;47.332;11.180;2023-01-29T13:01:58;10.00;85.40
11284;DHT22;5698;47.332;11.180;2023-01-29T13:04:34;10.00;84.10
11284;DHT22;5698;47.332;11.180;2023-01-29T13:07:09;9.70;81.00
11284;DHT22;5698;47.332;11.180;2023-01-29T13:09:39;9.60;83.40
11284;DHT22;5698;47.332;11.180;2023-01-29T13:12:12;9.40;84.70
11284;DHT22;5698;47.332;11.180;2023-01-29T13:14:46;9.00;76.50
11284;DHT22;5698;47.332;11.180;2023-01-29T13:17:24;8.20;79.30
11284;DHT22;5698;47.332;11.180;2023-01-29T13:19:54;7.90;85.00
11284;DHT22;5698;47.332;11.180;2023-01-29T13:22:24;7.80;85.60
11284;DHT22;5698;47.332;11.180;2023-01-29T13:24:53;7.70;85.30
11284;DHT22;5698;47.332;11.180;2023-01-29T13:27:23;7.20;83.60
11284;DHT22;5698;47.332;11.180;2023-01-29T13:29:53;7.10;88.60
11284;DHT22;5698;47.332;11.180;2023-01-29T13:32:26;6.90;84.90
11284;DHT22;5698;47.332;11.180;2023-01-29T13:34:55;5.80;84.70
11284;DHT22;5698;47.332;11.180;2023-01-29T13:37:28;5.50;88.00
11284;DHT22;5698;47.332;11.180;2023-01-29T13:39:57;5.40;90.40
11284;DHT22;5698;47.332;11.180;2023-01-29T13:42:35;5.30;90.60
11284;DHT22;5698;47.332;11.180;2023-01-29T13:45:07;5.20;90.50
11284;DHT22;5698;47.332;11.180;2023-01-29T13:47:36;5.00;90.10
11284;DHT22;5698;47.332;11.180;2023-01-29T13:50:06;4.80;89.50
11284;DHT22;5698;47.332;11.180;2023-01-29T13:52:37;3.90;90.20
11284;DHT22;5698;47.332;11.180;2023-01-29T13:55:18;3.80;91.40
11284;DHT22;5698;47.332;11.180;2023-01-29T13:57:54;3.80;92.90
11284;DHT22;5698;47.332;11.180;2023-01-29T14:00:56;3.90;93.40
11284;DHT22;5698;47.332;11.180;2023-01-29T14:03:50;3.90;92.90
11284;DHT22;5698;47.332;11.180;2023-01-29T14:06:44;4.00;93.70
11284;DHT22;5698;47.332;11.180;2023-01-29T14:12:50;3.50;93.30
11284;DHT22;5698;47.332;11.180;2023-01-29T14:15:26;3.30;92.70
11284;DHT22;5698;47.332;11.180;2023-01-29T14:18:19;2.80;93.10
11284;DHT22;5698;47.332;11.180;2023-01-29T14:20:57;2.30;94.20
11284;DHT22;5698;47.332;11.180;2023-01-29T14:23:39;1.80;94.60
11284;DHT22;5698;47.332;11.180;2023-01-29T14:26:25;1.50;94.90
11284;DHT22;5698;47.332;11.180;2023-01-29T14:29:00;1.20;95.90
11284;DHT22;5698;47.332;11.180;2023-01-29T14:31:30;1.30;96.40
11284;DHT22;5698;47.332;11.180;2023-01-29T14:34:05;1.20;96.30
11284;DHT22;5698;47.332;11.180;2023-01-29T14:36:38;1.30;96.40
11284;DHT22;5698;47.332;11.180;2023-01-29T14:39:16;1.30;96.40
11284;DHT22;5698;47.332;11.180;2023-01-29T14:41:44;1.20;96.70
11284;DHT22;5698;47.332;11.180;2023-01-29T14:44:46;1.20;96.50
11284;DHT22;5698;47.332;11.180;2023-01-29T14:47:18;1.20;96.40
11284;DHT22;5698;47.332;11.180;2023-01-29T14:49:51;1.30;96.90
11284;DHT22;5698;47.332;11.180;2023-01-29T14:52:21;1.30;96.90
11284;DHT22;5698;47.332;11.180;2023-01-29T14:54:51;1.40;97.00
11284;DHT22;5698;47.332;11.180;2023-01-29T14:57:20;1.30;96.60
11284;DHT22;5698;47.332;11.180;2023-01-29T14:59:52;1.30;97.10
11284;DHT22;5698;47.332;11.180;2023-01-29T15:02:23;1.40;97.40
11284;DHT22;5698;47.332;11.180;2023-01-29T15:04:55;1.40;97.60
11284;DHT22;5698;47.332;11.180;2023-01-29T15:07:28;1.50;97.70
11284;DHT22;5698;47.332;11.180;2023-01-29T15:10:03;1.50;97.90
11284;DHT22;5698;47.332;11.180;2023-01-29T15:12:38;1.50;98.30
11284;DHT22;5698;47.332;11.180;2023-01-29T15:15:14;1.50;98.30
11284;DHT22;5698;47.332;11.180;2023-01-29T15:17:51;1.40;98.40
11284;DHT22;5698;47.332;11.180;2023-01-29T15:20:39;1.30;98.40
11284;DHT22;5698;47.332;11.180;2023-01-29T15:23:24;1.20;98.70
11284;DHT22;5698;47.332;11.180;2023-01-29T15:25:54;1.20;98.90
11284;DHT22;5698;47.332;11.180;2023-01-29T15:28:22;0.90;98.70
11284;DHT22;5698;47.332;11.180;2023-01-29T15:30:51;0.80;99.10
11284;DHT22;5698;47.332;11.180;2023-01-29T15:33:20;0.70;99.30
11284;DHT22;5698;47.332;11.180;2023-01-29T15:35:54;0.70;99.60
11284;DHT22;5698;47.332;11.180;2023-01-29T15:38:23;0.60;99.70
11284;DHT22;5698;47.332;11.180;2023-01-29T15:40:52;0.60;99.90
11284;DHT22;5698;47.332;11.180;2023-01-29T15:43:20;0.50;99.90
11284;DHT22;5698;47.332;11.180;2023-01-29T15:45:48;0.50;99.90
11284;DHT22;5698;47.332;11.180;2023-01-29T15:48:18;0.50;99.90
11284;DHT22;5698;47.332;11.180;2023-01-29T15:50:50;0.50;99.90
11284;DHT22;5698;47.332;11.180;2023-01-29T15:53:22;0.50;99.90
11284;DHT22;5698;47.332;11.180;2023-01-29T15:55:50;0.50;99.90
11284;DHT22;5698;47.332;11.180;2023-01-29T15:58:22;0.40;99.90
11284;DHT22;5698;47.332;11.180;2023-01-29T16:00:51;0.30;99.90
11284;DHT22;5698;47.332;11.180;2023-01-29T16:03:21;0.20;99.90
11284;DHT22;5698;47.332;11.180;2023-01-29T16:05:51;0.10;99.90
11284;DHT22;5698;47.332;11.180;2023-01-29T16:08:20;0.10;99.90
11284;DHT22;5698;47.332;11.180;2023-01-29T16:10:49;0.00;99.90
11284;DHT22;5698;47.332;11.180;2023-01-29T16:13:20;-0.20;99.90
11284;DHT22;5698;47.332;11.180;2023-01-29T16:15:55;-0.20;99.90
11284;DHT22;5698;47.332;11.180;2023-01-29T16:18:24;-0.40;99.90
11284;DHT22;5698;47.332;11.180;2023-01-29T16:20:56;-0.50;99.90
11284;DHT22;5698;47.332;11.180;2023-01-29T16:23:26;-0.60;99.90
11284;DHT22;5698;47.332;11.180;2023-01-29T16:25:55;-0.70;99.90
11284;DHT22;5698;47.332;11.180;2023-01-29T16:28:22;-0.80;99.90